Time;durP1;ratioP1;P1;durP2;ratioP2;P2;SDS_P1;SDS_P2;PMS_P1;PMS_P2;Temp;Humidity;BMP_temperature;BMP_pressure;BME280_temperature;BME280_humidity;BME280_pressure;Samples;Min_cycle;Max_cycle;Signal;HPM_P1;HPM_P2
2022/09/12 00:01:15;;;;;;;26.23;23.40;;;15.50;91.00;;;;;;5079200;28;20451;-64
2022/09/12 00:03:43;;;;;;;24.45;21.88;;;15.50;91.30;;;;;;5079354;28;20489;-65
2022/09/12 00:06:12;;;;;;;23.60;21.30;;;15.50;91.40;;;;;;5079032;28;20549;-66
2022/09/12 00:08:39;;;;;;;24.00;21.60;;;15.40;91.30;;;;;;5078100;28;20457;-65
2022/09/12 00:11:08;;;;;;;23.90;21.60;;;15.50;91.60;;;;;;5075051;28;20435;-65
2022/09/12 00:13:35;;;;;;;24.25;21.65;;;15.40;91.60;;;;;;5078854;28;20431;-65
2022/09/12 00:16:02;;;;;;;24.52;21.85;;;15.40;91.60;;;;;;5079671;28;20422;-66
2022/09/12 00:18:29;;;;;;;23.90;21.40;;;15.40;91.50;;;;;;5084443;28;20733;-65
2022/09/12 00:20:57;;;;;;;24.55;21.88;;;15.40;91.70;;;;;;5077098;28;20743;-64
2022/09/12 00:23:24;;;;;;;25.45;22.00;;;15.40;92.00;;;;;;5077663;28;20425;-64
2022/09/12 00:25:50;;;;;;;22.75;20.45;;;15.40;92.20;;;;;;5078683;28;20428;-66
2022/09/12 00:28:18;;;;;;;25.42;22.75;;;15.30;92.10;;;;;;5078823;28;20499;-66
2022/09/12 00:30:47;;;;;;;23.98;21.58;;;15.30;92.20;;;;;;5071151;28;20945;-66
2022/09/12 00:33:15;;;;;;;23.20;20.90;;;15.30;92.10;;;;;;5083039;28;20422;-66
2022/09/12 00:35:43;;;;;;;23.38;20.98;;;15.30;92.10;;;;;;5076848;28;20777;-66
2022/09/12 00:38:12;;;;;;;22.73;20.40;;;15.30;92.30;;;;;;5075014;28;20427;-65
2022/09/12 00:40:39;;;;;;;23.88;21.67;;;15.20;91.90;;;;;;5082471;28;20434;-65
2022/09/12 00:43:06;;;;;;;23.95;21.45;;;15.20;92.00;;;;;;5076859;28;20421;-66
2022/09/12 00:45:33;;;;;;;23.33;20.88;;;15.20;92.30;;;;;;5081918;28;20426;-65
2022/09/12 00:48:03;;;;;;;23.73;21.33;;;15.20;92.30;;;;;;5082696;28;20429;-66
2022/09/12 00:50:32;;;;;;;24.38;21.77;;;15.20;92.00;;;;;;5079658;28;21123;-64
2022/09/12 00:53:03;;;;;;;23.35;21.00;;;15.20;92.30;;;;;;5073332;28;20538;-65
2022/09/12 00:55:35;;;;;;;23.05;20.65;;;15.10;92.10;;;;;;5077656;28;20453;-65
2022/09/12 00:58:06;;;;;;;23.00;20.80;;;15.10;92.00;;;;;;5082315;28;20430;-65
2022/09/12 01:00:33;;;;;;;23.50;21.20;;;15.10;91.90;;;;;;5076010;28;20778;-66
2022/09/12 01:03:04;;;;;;;22.45;20.25;;;15.00;92.00;;;;;;5080625;28;20434;-67
2022/09/12 01:05:34;;;;;;;22.60;20.30;;;15.00;92.10;;;;;;5073262;28;20783;-67
2022/09/12 01:08:02;;;;;;;22.50;20.20;;;15.00;92.20;;;;;;5078767;28;20434;-66
2022/09/12 01:10:29;;;;;;;23.48;21.08;;;15.00;92.30;;;;;;5081598;28;20902;-66
2022/09/12 01:12:58;;;;;;;22.48;20.17;;;15.00;92.20;;;;;;5078863;28;20415;-67
2022/09/12 01:15:25;;;;;;;22.70;20.40;;;14.90;92.20;;;;;;5080093;28;20504;-66
2022/09/12 01:18:06;;;;;;;23.90;21.40;;;14.90;92.40;;;;;;5079456;28;20439;-67
2022/09/12 01:20:54;;;;;;;22.95;20.30;;;14.90;92.70;;;;;;5080456;28;20874;-65
2022/09/12 01:23:57;;;;;;;25.10;22.60;;;14.90;92.70;;;;;;5076216;28;20425;-67
2022/09/12 01:26:57;;;;;;;22.95;20.65;;;14.80;92.70;;;;;;5062631;28;20488;-67
2022/09/12 01:29:52;;;;;;;23.67;21.30;;;14.80;92.50;;;;;;5073993;28;20418;-67
2022/09/12 01:32:30;;;;;;;23.40;21.10;;;14.80;92.60;;;;;;5053367;28;20772;-66
2022/09/12 01:35:04;;;;;;;23.55;21.15;;;14.70;92.60;;;;;;5077624;28;20422;-67
2022/09/12 01:37:38;;;;;;;23.75;21.35;;;14.70;92.60;;;;;;5083372;28;20426;-66
2022/09/12 01:40:14;;;;;;;24.27;21.80;;;14.70;92.90;;;;;;5083385;28;20417;-68
2022/09/12 01:42:47;;;;;;;24.98;22.27;;;14.70;93.10;;;;;;5082756;28;20444;-66
2022/09/12 01:45:19;;;;;;;23.23;20.83;;;14.70;93.10;;;;;;5082052;28;20960;-67
2022/09/12 01:47:53;;;;;;;24.27;21.77;;;14.70;93.00;;;;;;5070316;28;20815;-67
2022/09/12 01:50:24;;;;;;;22.75;20.45;;;14.60;93.00;;;;;;5082157;28;20521;-67
2022/09/12 01:52:56;;;;;;;23.70;21.30;;;14.60;92.90;;;;;;5082646;28;20414;-67
2022/09/12 01:55:26;;;;;;;23.10;20.70;;;14.60;92.90;;;;;;5073062;28;20950;-67
2022/09/12 01:57:57;;;;;;;23.10;20.90;;;14.50;93.00;;;;;;5077193;28;20420;-67
2022/09/12 02:00:24;;;;;;;22.55;20.25;;;14.50;93.00;;;;;;5083062;28;20864;-67
2022/09/12 02:02:57;;;;;;;23.17;20.97;;;14.50;93.40;;;;;;5082784;28;20418;-67
2022/09/12 02:05:29;;;;;;;22.35;20.05;;;14.50;93.00;;;;;;5082303;28;20501;-67
2022/09/12 02:08:02;;;;;;;22.55;20.15;;;14.50;93.00;;;;;;5083066;28;20780;-67
2022/09/12 02:10:32;;;;;;;22.33;20.08;;;14.40;93.20;;;;;;5083122;28;20479;-68
2022/09/12 02:13:05;;;;;;;22.95;20.65;;;14.50;93.30;;;;;;5081082;28;20426;-67
2022/09/12 02:15:37;;;;;;;22.60;20.35;;;14.50;93.60;;;;;;5080433;28;20537;-67
2022/09/12 02:18:06;;;;;;;23.63;21.20;;;14.50;93.60;;;;;;5082054;28;20437;-66
2022/09/12 02:20:36;;;;;;;22.80;20.45;;;14.50;93.60;;;;;;5075804;28;20440;-67
2022/09/12 02:23:08;;;;;;;22.48;20.27;;;14.40;93.40;;;;;;5074342;28;20439;-67
2022/09/12 02:25:38;;;;;;;24.03;21.30;;;14.40;93.40;;;;;;5069911;28;20451;-67
2022/09/12 02:28:09;;;;;;;22.95;20.65;;;14.40;93.30;;;;;;5079589;28;20445;-66
2022/09/12 02:30:43;;;;;;;22.30;20.10;;;14.40;93.40;;;;;;5071689;28;20449;-66
2022/09/12 02:33:20;;;;;;;22.33;20.02;;;14.40;93.30;;;;;;5078963;28;20449;-67
2022/09/12 02:35:52;;;;;;;21.23;19.03;;;14.40;93.40;;;;;;5075851;28;20537;-66
2022/09/12 02:38:27;;;;;;;21.47;19.27;;;14.40;93.30;;;;;;5079489;28;20493;-66
2022/09/12 02:40:54;;;;;;;22.20;19.92;;;14.40;93.20;;;;;;5078245;28;20425;-67
2022/09/12 02:43:21;;;;;;;19.90;17.90;;;14.40;93.00;;;;;;5070390;28;20426;-67
2022/09/12 02:45:48;;;;;;;21.70;19.50;;;14.30;93.00;;;;;;5077827;28;20491;-65
2022/09/12 02:48:20;;;;;;;20.95;18.85;;;14.30;92.90;;;;;;5085784;28;20418;-66
2022/09/12 02:50:47;;;;;;;20.67;18.48;;;14.30;93.10;;;;;;5080440;28;20456;-68
2022/09/12 02:53:15;;;;;;;20.50;18.40;;;14.20;93.10;;;;;;5078168;28;20494;-68
2022/09/12 02:55:42;;;;;;;19.40;17.52;;;14.30;93.00;;;;;;5080027;28;20427;-67
2022/09/12 02:58:13;;;;;;;20.60;18.60;;;14.30;93.10;;;;;;5082611;28;20410;-67
2022/09/12 03:00:49;;;;;;;20.13;18.23;;;14.20;92.80;;;;;;5081287;28;20431;-67
2022/09/12 03:03:37;;;;;;;18.73;16.75;;;14.20;92.80;;;;;;5084521;28;20515;-67
2022/09/12 03:06:13;;;;;;;19.85;17.95;;;14.20;92.70;;;;;;5080295;28;20436;-67
2022/09/12 03:08:57;;;;;;;18.85;16.85;;;14.20;92.80;;;;;;5078744;28;21242;-67
2022/09/12 03:11:36;;;;;;;20.17;18.17;;;14.20;92.80;;;;;;5078958;28;20509;-67
2022/09/12 03:14:13;;;;;;;19.80;17.70;;;14.10;92.90;;;;;;5083872;28;20744;-67
2022/09/12 03:16:51;;;;;;;19.70;17.80;;;14.10;92.80;;;;;;5084919;28;20513;-67
2022/09/12 03:19:26;;;;;;;19.23;17.33;;;14.10;92.70;;;;;;5083959;28;21123;-67
2022/09/12 03:22:02;;;;;;;19.63;17.73;;;14.00;92.80;;;;;;5074298;28;20499;-66
2022/09/12 03:24:33;;;;;;;18.42;16.73;;;14.00;92.60;;;;;;5074489;28;20450;-67
2022/09/12 03:27:08;;;;;;;19.25;17.52;;;14.00;92.60;;;;;;5078893;28;21108;-67
2022/09/12 03:29:36;;;;;;;19.20;17.20;;;14.00;92.70;;;;;;5080578;28;20455;-67
2022/09/12 03:32:03;;;;;;;19.95;18.05;;;13.90;92.70;;;;;;5078323;28;20528;-67
2022/09/12 03:34:31;;;;;;;19.40;17.33;;;14.00;92.80;;;;;;5078899;28;20438;-67
2022/09/12 03:36:58;;;;;;;18.63;16.83;;;13.90;92.60;;;;;;5080716;28;20794;-66
2022/09/12 03:39:26;;;;;;;18.38;16.48;;;13.90;92.50;;;;;;5072862;28;20526;-67
2022/09/12 03:41:53;;;;;;;18.52;16.70;;;13.90;92.50;;;;;;5078275;28;20519;-67
2022/09/12 03:44:20;;;;;;;19.08;17.27;;;13.90;92.50;;;;;;5081763;28;20888;-67
2022/09/12 03:46:47;;;;;;;18.85;17.15;;;13.80;92.60;;;;;;5079056;28;20421;-66
2022/09/12 03:49:14;;;;;;;18.60;16.80;;;13.80;92.70;;;;;;5082819;28;20460;-67
2022/09/12 03:51:42;;;;;;;19.75;17.92;;;13.80;92.90;;;;;;5077544;28;20449;-67
2022/09/12 03:54:10;;;;;;;19.80;17.90;;;13.80;93.00;;;;;;5080796;28;20433;-67
2022/09/12 03:56:37;;;;;;;19.80;17.90;;;13.80;93.00;;;;;;5082655;28;20468;-67
2022/09/12 03:59:06;;;;;;;18.67;16.98;;;13.80;93.20;;;;;;5071149;28;20898;-65
2022/09/12 04:01:33;;;;;;;18.50;16.80;;;13.80;93.20;;;;;;5081991;28;20529;-65
2022/09/12 04:04:00;;;;;;;18.40;16.70;;;13.80;93.20;;;;;;5081420;28;20445;-65
2022/09/12 04:06:27;;;;;;;19.60;17.70;;;13.80;93.10;;;;;;5081367;28;20431;-66
2022/09/12 04:08:55;;;;;;;20.00;18.10;;;13.80;93.00;;;;;;5075086;28;20430;-66
2022/09/12 04:11:23;;;;;;;20.45;18.55;;;13.80;93.00;;;;;;5081812;28;20457;-65
2022/09/12 04:13:50;;;;;;;20.67;18.67;;;13.80;93.00;;;;;;5075337;28;20436;-66
2022/09/12 04:16:17;;;;;;;20.20;18.30;;;13.80;93.10;;;;;;5081487;28;20515;-64
2022/09/12 04:18:44;;;;;;;21.10;19.00;;;13.80;93.00;;;;;;5080698;28;20435;-64
2022/09/12 04:21:13;;;;;;;22.48;20.17;;;13.80;93.40;;;;;;5073154;28;20438;-65
2022/09/12 04:23:40;;;;;;;19.33;17.63;;;13.70;93.10;;;;;;5070155;28;20429;-64
2022/09/12 04:26:08;;;;;;;18.77;17.08;;;13.70;93.20;;;;;;5078656;28;20932;-64
2022/09/12 04:28:36;;;;;;;18.00;16.25;;;13.70;93.20;;;;;;5083446;28;20867;-65
2022/09/12 04:31:06;;;;;;;18.10;16.40;;;13.70;93.00;;;;;;5076408;28;20459;-65
2022/09/12 04:33:33;;;;;;;18.92;17.08;;;13.70;93.10;;;;;;5076698;28;20486;-62
2022/09/12 04:36:04;;;;;;;18.38;16.70;;;13.70;93.00;;;;;;5078874;28;20425;-66
2022/09/12 04:38:31;;;;;;;18.70;17.10;;;13.70;93.20;;;;;;5075579;28;20461;-64
2022/09/12 04:40:57;;;;;;;18.67;16.87;;;13.70;93.00;;;;;;5077584;28;20426;-65
2022/09/12 04:43:26;;;;;;;18.00;16.30;;;13.60;93.00;;;;;;5074014;28;20449;-64
2022/09/12 04:45:52;;;;;;;17.70;16.00;;;13.70;93.20;;;;;;5081474;28;20775;-65
2022/09/12 04:48:19;;;;;;;18.38;16.67;;;13.60;93.10;;;;;;5082499;28;20473;-63
2022/09/12 04:50:46;;;;;;;18.25;16.55;;;13.60;93.30;;;;;;5072323;28;20425;-64
2022/09/12 04:53:12;;;;;;;17.55;15.82;;;13.60;93.20;;;;;;5077312;28;20433;-66
2022/09/12 04:55:39;;;;;;;17.67;16.08;;;13.60;93.20;;;;;;5072817;28;20445;-65
2022/09/12 04:58:06;;;;;;;17.80;16.20;;;13.50;93.20;;;;;;5076724;28;20426;-69
2022/09/12 05:00:34;;;;;;;18.02;16.33;;;13.50;93.10;;;;;;5079778;28;20513;-70
2022/09/12 05:03:01;;;;;;;17.75;15.95;;;13.50;93.30;;;;;;5071120;28;20953;-69
2022/09/12 05:05:28;;;;;;;17.65;15.95;;;13.50;93.30;;;;;;5073884;28;20801;-69
2022/09/12 05:07:55;;;;;;;18.90;17.00;;;13.50;93.40;;;;;;5075021;28;20793;-69
2022/09/12 05:10:22;;;;;;;17.45;15.80;;;13.50;93.50;;;;;;5078696;28;20457;-69
2022/09/12 05:12:49;;;;;;;17.50;15.70;;;13.40;93.50;;;;;;5069137;28;20524;-69
2022/09/12 05:15:16;;;;;;;17.40;15.80;;;13.40;93.50;;;;;;5077629;28;20521;-69
2022/09/12 05:17:45;;;;;;;17.35;15.65;;;13.40;93.50;;;;;;5070349;28;20525;-69
2022/09/12 05:20:12;;;;;;;17.05;15.45;;;13.40;93.40;;;;;;5080152;28;20434;-69
2022/09/12 05:22:39;;;;;;;17.80;16.20;;;13.40;93.40;;;;;;5069919;28;20476;-69
2022/09/12 05:25:07;;;;;;;16.40;14.95;;;13.40;93.60;;;;;;5079845;28;20434;-69
2022/09/12 05:27:34;;;;;;;17.33;15.73;;;13.40;93.60;;;;;;5077832;28;20429;-69
2022/09/12 05:30:01;;;;;;;16.08;14.68;;;13.40;93.60;;;;;;5078030;28;20440;-69
2022/09/12 05:32:32;;;;;;;17.40;15.80;;;13.40;93.70;;;;;;5078828;28;20891;-69
2022/09/12 05:35:00;;;;;;;16.63;15.02;;;13.50;93.70;;;;;;5081509;28;20939;-69
2022/09/12 05:37:27;;;;;;;15.63;14.13;;;13.60;93.50;;;;;;5078434;28;20503;-69
2022/09/12 05:39:54;;;;;;;16.10;14.50;;;13.60;93.30;;;;;;5080975;28;20616;-69
2022/09/12 05:42:21;;;;;;;16.40;14.90;;;13.60;93.20;;;;;;5075022;22;20437;-73
2022/09/12 05:44:47;;;;;;;15.93;14.53;;;13.70;93.10;;;;;;5038778;28;20501;-73
2022/09/12 05:47:15;;;;;;;16.10;14.60;;;13.70;93.00;;;;;;5044068;28;20504;-73
2022/09/12 05:49:46;;;;;;;16.13;14.68;;;13.80;93.00;;;;;;5045444;28;20845;-73
2022/09/12 05:52:15;;;;;;;15.65;14.25;;;13.80;93.00;;;;;;5035471;28;20422;-72
2022/09/12 05:54:41;;;;;;;15.17;13.67;;;13.90;92.90;;;;;;5038562;28;20523;-72
2022/09/12 05:57:08;;;;;;;15.10;13.70;;;13.90;92.70;;;;;;5057920;28;20505;-72
2022/09/12 05:59:35;;;;;;;15.23;13.82;;;13.90;92.40;;;;;;5046952;28;20444;-72
2022/09/12 06:02:02;;;;;;;14.25;12.95;;;14.00;92.40;;;;;;5051512;28;20437;-72
2022/09/12 06:04:29;;;;;;;14.85;13.38;;;14.00;92.50;;;;;;5047595;28;20523;-71
2022/09/12 06:06:55;;;;;;;14.32;12.98;;;14.10;92.30;;;;;;5049376;28;20933;-72
2022/09/12 06:09:24;;;;;;;14.65;13.23;;;14.20;91.80;;;;;;5040658;28;20433;-72
2022/09/12 06:11:51;;;;;;;14.88;13.38;;;14.20;91.90;;;;;;5051125;28;20433;-72
2022/09/12 06:14:19;;;;;;;13.70;12.60;;;14.30;91.80;;;;;;5066846;28;20432;-72
2022/09/12 06:16:47;;;;;;;14.38;12.98;;;14.30;91.80;;;;;;5066600;28;20413;-71
2022/09/12 06:19:16;;;;;;;13.65;12.50;;;14.30;91.90;;;;;;5052227;28;20467;-72
2022/09/12 06:21:43;;;;;;;13.82;12.52;;;14.40;91.50;;;;;;5043628;28;20462;-72
2022/09/12 06:24:10;;;;;;;14.07;12.88;;;14.40;91.20;;;;;;5045999;28;20429;-73
2022/09/12 06:26:38;;;;;;;14.10;12.80;;;14.40;91.20;;;;;;5042588;28;20430;-73
2022/09/12 06:29:06;;;;;;;13.25;12.05;;;14.40;91.10;;;;;;5044268;28;20526;-72
2022/09/12 06:31:35;;;;;;;13.27;12.07;;;14.50;91.00;;;;;;5047791;28;20426;-72
2022/09/12 06:34:03;;;;;;;14.95;13.55;;;14.50;91.10;;;;;;5046351;28;20631;-72
2022/09/12 06:36:32;;;;;;;14.05;12.75;;;14.50;91.10;;;;;;5044596;28;20432;-72
2022/09/12 06:39:01;;;;;;;15.00;13.70;;;14.60;91.10;;;;;;5047454;28;20436;-72
2022/09/12 06:41:29;;;;;;;13.68;12.38;;;14.70;90.90;;;;;;5035736;28;20956;-72
2022/09/12 06:43:59;;;;;;;13.82;12.52;;;14.70;90.50;;;;;;5041633;28;20447;-72
2022/09/12 06:46:26;;;;;;;14.20;12.90;;;14.80;90.50;;;;;;5046460;28;20429;-72
2022/09/12 06:48:53;;;;;;;14.02;12.82;;;14.90;90.30;;;;;;5049049;28;20433;-72
2022/09/12 06:51:20;;;;;;;14.40;13.10;;;15.00;90.30;;;;;;5045698;28;20936;-73
2022/09/12 06:53:48;;;;;;;14.33;12.93;;;15.10;90.20;;;;;;5045110;28;20498;-72
2022/09/12 06:56:17;;;;;;;13.43;12.23;;;15.20;89.90;;;;;;5051869;28;20429;-72
2022/09/12 06:58:44;;;;;;;13.80;12.50;;;15.20;88.50;;;;;;5045149;28;20433;-74
2022/09/12 07:01:15;;;;;;;13.13;11.90;;;15.30;88.90;;;;;;5035115;28;22208;-73
2022/09/12 07:03:42;;;;;;;13.52;12.32;;;15.40;88.30;;;;;;5051374;28;20439;-72
2022/09/12 07:06:10;;;;;;;14.13;12.75;;;15.50;88.00;;;;;;5046426;28;20440;-74
2022/09/12 07:08:38;;;;;;;13.35;12.15;;;15.60;87.50;;;;;;5036463;28;20433;-72
2022/09/12 07:11:11;;;;;;;13.10;11.90;;;15.70;87.40;;;;;;5037684;28;20514;-72
2022/09/12 07:13:38;;;;;;;12.80;11.60;;;15.70;86.90;;;;;;5038014;28;20439;-72
2022/09/12 07:16:05;;;;;;;13.18;12.00;;;15.80;86.40;;;;;;5034960;28;20438;-73
2022/09/12 07:18:34;;;;;;;13.57;12.20;;;15.90;86.30;;;;;;5042108;28;20433;-72
2022/09/12 07:21:01;;;;;;;12.50;11.30;;;15.90;86.20;;;;;;5048181;28;20429;-73
2022/09/12 07:23:28;;;;;;;13.10;12.00;;;16.00;85.80;;;;;;5043542;28;20444;-72
2022/09/12 07:25:56;;;;;;;12.73;11.73;;;16.00;85.10;;;;;;5045490;28;20799;-72
2022/09/12 07:28:23;;;;;;;12.93;11.82;;;16.00;85.30;;;;;;5048174;28;20439;-73
2022/09/12 07:30:50;;;;;;;13.88;12.43;;;16.10;85.60;;;;;;5042334;28;20930;-73
2022/09/12 07:33:17;;;;;;;13.83;12.43;;;16.10;85.00;;;;;;5043234;28;20540;-73
2022/09/12 07:35:45;;;;;;;13.60;12.38;;;16.10;85.20;;;;;;5043027;28;20431;-73
2022/09/12 07:38:12;;;;;;;14.40;13.00;;;16.10;85.20;;;;;;5070356;28;20425;-73
2022/09/12 07:40:39;;;;;;;14.13;12.35;;;16.20;85.20;;;;;;5073211;28;20408;-72
2022/09/12 07:43:06;;;;;;;13.18;11.88;;;16.30;84.40;;;;;;5076027;28;20420;-72
2022/09/12 07:45:33;;;;;;;12.98;11.77;;;16.40;84.40;;;;;;5066968;28;20455;-73
2022/09/12 07:47:59;;;;;;;12.52;11.43;;;16.50;84.10;;;;;;5043092;28;20435;-73
2022/09/12 07:50:26;;;;;;;13.95;12.65;;;16.70;83.00;;;;;;5044646;28;20529;-73
2022/09/12 07:52:55;;;;;;;13.77;12.57;;;16.80;82.30;;;;;;5042549;28;20433;-72
2022/09/12 07:55:22;;;;;;;13.73;11.88;;;16.80;81.80;;;;;;5041329;28;20436;-72
2022/09/12 07:57:49;;;;;;;13.82;12.50;;;16.70;82.50;;;;;;5049691;28;20809;-74
2022/09/12 08:00:16;;;;;;;13.40;12.10;;;16.80;82.60;;;;;;5044707;28;20422;-75
2022/09/12 08:02:43;;;;;;;12.38;11.27;;;16.90;81.70;;;;;;5042590;28;20436;-73
2022/09/12 08:05:10;;;;;;;12.57;11.45;;;17.00;81.80;;;;;;5040960;28;22038;-67
2022/09/12 08:07:37;;;;;;;12.70;11.50;;;17.00;81.20;;;;;;5048828;28;20950;-69
2022/09/12 08:10:06;;;;;;;12.65;11.55;;;17.20;80.60;;;;;;5041932;28;20433;-68
2022/09/12 08:12:33;;;;;;;12.63;11.33;;;17.30;80.40;;;;;;5041699;28;20431;-69
2022/09/12 08:15:01;;;;;;;12.00;11.00;;;17.50;79.50;;;;;;5039267;28;20437;-68
2022/09/12 08:17:28;;;;;;;12.30;11.20;;;17.60;79.10;;;;;;5073256;28;20429;-67
2022/09/12 08:19:55;;;;;;;12.43;11.13;;;17.70;78.60;;;;;;5064328;28;20429;-71
2022/09/12 08:22:23;;;;;;;12.60;11.40;;;17.80;77.70;;;;;;5054557;28;20434;-68
2022/09/12 08:24:50;;;;;;;12.48;11.18;;;17.90;78.10;;;;;;5038880;28;20438;-69
2022/09/12 08:27:18;;;;;;;12.27;11.13;;;18.00;77.90;;;;;;5044393;28;20437;-68
2022/09/12 08:29:44;;;;;;;11.85;10.75;;;18.00;77.20;;;;;;5037795;28;20456;-69
2022/09/12 08:32:11;;;;;;;11.80;10.60;;;18.00;76.70;;;;;;5045323;28;20429;-68
2022/09/12 08:34:38;;;;;;;11.48;10.27;;;18.00;77.50;;;;;;5049208;28;20436;-71
2022/09/12 08:37:05;;;;;;;11.67;10.57;;;18.10;76.70;;;;;;5060021;28;20433;-69
2022/09/12 08:39:32;;;;;;;11.23;10.10;;;18.20;76.80;;;;;;5036282;28;20438;-70
2022/09/12 08:42:02;;;;;;;11.27;9.88;;;18.40;76.40;;;;;;5034783;28;20434;-69
2022/09/12 08:44:58;;;;;;;10.55;9.50;;;18.50;75.90;;;;;;5045260;28;20438;-68
2022/09/12 08:47:28;;;;;;;11.15;10.00;;;18.70;76.20;;;;;;5035099;28;20429;-69
2022/09/12 08:50:10;;;;;;;10.63;9.63;;;18.80;74.20;;;;;;5042610;28;20439;-70
2022/09/12 08:52:42;;;;;;;10.50;9.50;;;18.90;73.70;;;;;;5042242;28;20426;-69
2022/09/12 08:55:29;;;;;;;10.00;9.20;;;19.00;73.40;;;;;;5044292;28;20452;-69
2022/09/12 08:57:57;;;;;;;10.73;9.82;;;19.50;72.40;;;;;;5044066;28;20479;-68
2022/09/12 09:00:31;;;;;;;10.00;9.00;;;19.90;70.20;;;;;;5040010;28;20444;-69
2022/09/12 09:03:21;;;;;;;9.30;8.60;;;20.20;69.70;;;;;;5041579;28;20433;-69
2022/09/12 09:05:52;;;;;;;9.70;8.65;;;20.60;68.30;;;;;;5046020;28;20435;-69
2022/09/12 09:08:32;;;;;;;9.75;8.82;;;21.00;67.20;;;;;;5050535;28;20434;-67
2022/09/12 09:11:07;;;;;;;10.07;9.18;;;21.30;65.30;;;;;;5047414;28;20431;-69
2022/09/12 09:16:35;;;;;;;9.60;8.70;;;21.40;63.80;;;;;;5047285;28;20424;-70
2022/09/12 09:19:05;;;;;;;8.75;7.95;;;21.40;64.40;;;;;;5036861;28;20434;-69
2022/09/12 09:21:37;;;;;;;8.30;7.70;;;21.60;64.20;;;;;;5046717;28;20468;-68
2022/09/12 09:24:07;;;;;;;8.55;7.80;;;21.80;63.10;;;;;;5040193;28;20429;-69
2022/09/12 09:26:43;;;;;;;8.98;8.27;;;22.00;62.90;;;;;;5039730;28;20446;-70
2022/09/12 09:29:16;;;;;;;7.30;6.70;;;22.20;61.60;;;;;;5039003;28;20914;-69
2022/09/12 09:31:47;;;;;;;7.80;7.10;;;22.50;61.40;;;;;;5039457;28;20444;-68
2022/09/12 09:34:20;;;;;;;8.60;7.80;;;22.70;59.90;;;;;;5039834;28;20449;-69
2022/09/12 09:36:52;;;;;;;7.60;6.90;;;23.00;58.80;;;;;;5035929;28;20441;-69
2022/09/12 09:39:38;;;;;;;8.15;7.47;;;23.10;59.00;;;;;;5040370;28;20437;-70
2022/09/12 09:42:16;;;;;;;7.25;6.55;;;23.40;57.80;;;;;;5044930;28;20493;-69
2022/09/12 09:44:46;;;;;;;7.37;6.80;;;23.60;57.70;;;;;;5039011;28;20512;-70
2022/09/12 09:47:14;;;;;;;6.55;5.85;;;23.80;56.50;;;;;;5031670;28;20429;-69
2022/09/12 09:49:41;;;;;;;7.30;6.50;;;23.90;56.70;;;;;;5046046;28;20440;-69
2022/09/12 09:52:11;;;;;;;7.00;6.30;;;24.20;55.30;;;;;;5033707;28;20463;-67
2022/09/12 09:54:42;;;;;;;6.35;5.80;;;24.30;54.60;;;;;;5045173;28;20428;-68
2022/09/12 09:57:40;;;;;;;6.40;5.90;;;24.60;53.40;;;;;;5044642;28;20436;-68
2022/09/12 10:00:26;;;;;;;5.50;5.00;;;24.60;52.60;;;;;;5049505;28;20430;-69
2022/09/12 10:03:03;;;;;;;6.45;5.95;;;24.90;52.60;;;;;;5053008;28;20499;-70
2022/09/12 10:05:32;;;;;;;6.30;5.80;;;25.00;52.10;;;;;;5051061;28;20438;-70
2022/09/12 10:07:59;;;;;;;5.68;5.28;;;25.10;52.00;;;;;;5037862;28;20512;-67
2022/09/12 10:10:26;;;;;;;5.90;5.40;;;25.30;51.10;;;;;;5050897;28;21115;-69
2022/09/12 10:13:07;;;;;;;5.80;5.30;;;25.40;51.30;;;;;;5050227;28;20435;-70
2022/09/12 10:15:34;;;;;;;5.35;4.80;;;25.70;50.80;;;;;;5044055;28;20506;-72
2022/09/12 10:18:03;;;;;;;5.97;4.90;;;25.70;50.60;;;;;;5045706;28;20421;-69
2022/09/12 10:20:32;;;;;;;5.35;4.95;;;25.80;49.60;;;;;;5058221;28;20448;-68
2022/09/12 10:23:01;;;;;;;5.30;4.90;;;25.80;49.30;;;;;;5058874;28;20548;-69
2022/09/12 10:25:28;;;;;;;5.60;5.10;;;25.60;49.10;;;;;;5050400;28;20469;-69
2022/09/12 10:27:59;;;;;;;5.35;4.85;;;25.40;49.60;;;;;;5045784;28;20436;-70
2022/09/12 10:30:27;;;;;;;5.20;4.80;;;25.20;49.90;;;;;;5043779;28;21117;-70
2022/09/12 10:33:03;;;;;;;5.15;4.70;;;25.30;49.40;;;;;;5048162;28;21052;-67
2022/09/12 10:35:43;;;;;;;4.20;3.90;;;25.30;49.30;;;;;;5049990;28;20444;-70
2022/09/12 10:38:16;;;;;;;4.40;4.20;;;25.50;49.90;;;;;;5042136;28;20428;-69
2022/09/12 10:40:44;;;;;;;5.30;4.80;;;25.80;47.70;;;;;;5049987;28;20437;-70
2022/09/12 10:43:17;;;;;;;4.10;3.80;;;26.00;46.90;;;;;;5046401;28;20449;-68
2022/09/12 10:45:44;;;;;;;4.73;4.43;;;26.30;46.20;;;;;;5046943;28;20417;-68
2022/09/12 10:48:27;;;;;;;4.10;3.60;;;26.40;46.90;;;;;;5038503;28;20443;-70
2022/09/12 10:50:56;;;;;;;3.80;3.50;;;26.70;46.10;;;;;;5047691;28;20818;-70
2022/09/12 10:53:26;;;;;;;3.50;3.08;;;26.90;44.10;;;;;;5052554;28;20432;-71
2022/09/12 10:56:07;;;;;;;3.35;3.15;;;27.00;43.40;;;;;;5056859;28;20427;-70
2022/09/12 10:58:54;;;;;;;3.17;2.97;;;27.20;42.50;;;;;;5047553;28;20436;-70
2022/09/12 11:01:33;;;;;;;2.60;2.40;;;27.10;41.50;;;;;;5043075;28;20433;-70
2022/09/12 11:04:14;;;;;;;2.73;2.53;;;27.00;41.30;;;;;;5037495;28;20431;-70
2022/09/12 11:06:53;;;;;;;2.90;2.70;;;27.10;42.00;;;;;;5041485;28;20428;-69
2022/09/12 11:09:26;;;;;;;2.40;2.20;;;27.30;41.00;;;;;;5040145;28;20425;-70
2022/09/12 11:12:04;;;;;;;2.60;2.40;;;27.40;41.00;;;;;;5043537;28;20433;-69
2022/09/12 11:14:45;;;;;;;3.30;2.80;;;27.80;40.40;;;;;;5052538;28;20489;-70
2022/09/12 11:17:22;;;;;;;2.73;2.53;;;27.80;39.50;;;;;;5058250;28;20436;-73
2022/09/12 11:20:08;;;;;;;3.20;2.40;;;27.70;39.80;;;;;;5069834;28;20402;-68
2022/09/12 11:23:01;;;;;;;2.00;1.90;;;27.70;39.50;;;;;;5066231;28;20415;-70
2022/09/12 11:25:34;;;;;;;2.10;1.80;;;27.70;38.70;;;;;;5067869;28;20414;-70
2022/09/12 11:28:23;;;;;;;1.85;1.75;;;27.60;38.30;;;;;;5067774;28;20481;-70
2022/09/12 11:31:07;;;;;;;2.33;1.80;;;27.70;38.30;;;;;;5061114;28;20415;-68
2022/09/12 11:33:42;;;;;;;1.90;1.80;;;27.60;38.10;;;;;;5060478;28;20416;-69
2022/09/12 11:36:23;;;;;;;2.70;2.33;;;27.70;37.80;;;;;;5051792;28;20507;-69
2022/09/12 11:39:01;;;;;;;2.90;2.20;;;27.70;37.50;;;;;;5047047;28;20428;-69
2022/09/12 11:41:32;;;;;;;2.25;2.05;;;27.70;38.30;;;;;;5047055;28;20429;-70
2022/09/12 11:44:08;;;;;;;1.90;1.80;;;27.70;36.10;;;;;;5067378;22;20449;-69
2022/09/12 11:46:36;;;;;;;1.90;1.70;;;27.50;36.80;;;;;;5033959;28;20429;-67
2022/09/12 11:49:14;;;;;;;1.80;1.70;;;27.40;38.10;;;;;;5039461;28;20440;-69
2022/09/12 11:51:45;;;;;;;1.80;1.60;;;27.60;37.10;;;;;;5032312;28;20537;-67
2022/09/12 11:54:21;;;;;;;2.30;1.70;;;27.70;36.80;;;;;;5033974;28;20539;-69
2022/09/12 11:56:51;;;;;;;1.70;1.60;;;27.80;36.50;;;;;;5034265;28;20459;-70
2022/09/12 11:59:30;;;;;;;1.80;1.60;;;28.00;36.60;;;;;;5033566;28;20439;-69
2022/09/12 12:01:59;;;;;;;1.70;1.60;;;27.90;35.70;;;;;;5034995;28;20437;-71
2022/09/12 12:04:36;;;;;;;2.10;1.50;;;27.80;36.00;;;;;;5033044;28;20887;-69
2022/09/12 12:07:06;;;;;;;2.00;1.90;;;27.80;36.10;;;;;;5035838;28;20429;-71
2022/09/12 12:09:34;;;;;;;2.10;2.00;;;27.70;35.50;;;;;;5035209;28;20437;-66
2022/09/12 12:12:06;;;;;;;1.83;1.73;;;27.60;36.40;;;;;;5034350;28;20484;-68
2022/09/12 12:14:41;;;;;;;2.08;1.98;;;27.70;36.00;;;;;;5036590;28;20464;-71
2022/09/12 12:17:15;;;;;;;2.30;2.10;;;27.90;35.80;;;;;;5034771;28;20484;-71
2022/09/12 12:19:42;;;;;;;2.03;1.92;;;27.80;36.20;;;;;;5033178;28;20431;-72
2022/09/12 12:22:17;;;;;;;2.00;1.80;;;27.80;36.90;;;;;;5037126;28;20440;-72
2022/09/12 12:25:08;;;;;;;1.90;1.80;;;27.80;35.90;;;;;;5034712;28;20431;-72
2022/09/12 12:27:55;;;;;;;1.80;1.70;;;28.00;35.20;;;;;;5041541;28;20512;-72
2022/09/12 12:30:59;;;;;;;1.80;1.70;;;28.40;35.00;;;;;;5034555;28;20438;-73
2022/09/12 12:34:08;;;;;;;2.85;1.90;;;28.60;34.60;;;;;;5043376;28;20531;-72
2022/09/12 12:36:41;;;;;;;2.10;1.90;;;28.40;34.10;;;;;;5038142;28;20436;-72
2022/09/12 12:39:48;;;;;;;2.40;2.20;;;28.40;35.40;;;;;;5035687;28;20413;-72
2022/09/12 12:43:03;;;;;;;2.00;1.90;;;28.80;35.60;;;;;;5037435;28;20441;-72
2022/09/12 12:46:09;;;;;;;2.10;2.00;;;29.50;34.10;;;;;;5043467;28;20791;-72
2022/09/12 12:48:50;;;;;;;1.90;1.80;;;29.80;33.40;;;;;;5031857;28;20427;-72
2022/09/12 12:51:47;;;;;;;2.08;1.98;;;29.90;33.30;;;;;;5037492;28;20455;-71
2022/09/12 12:54:31;;;;;;;1.70;1.60;;;29.60;33.90;;;;;;5033869;28;20433;-71
2022/09/12 12:57:14;;;;;;;2.10;1.60;;;29.10;31.90;;;;;;5041599;28;20436;-71
2022/09/12 12:59:47;;;;;;;1.95;1.60;;;28.80;34.50;;;;;;5036514;28;20492;-73